createdAt,value
2022-10-19T00:00:39.214Z,6.82
2022-10-19T00:01:39.301Z,6.73
2022-10-19T00:02:39.282Z,6.73
2022-10-19T00:03:39.395Z,6.82
2022-10-19T00:04:39.348Z,6.82
2022-10-19T00:05:39.382Z,6.82
2022-10-19T00:06:39.414Z,6.73
2022-10-19T00:07:39.449Z,6.82
2022-10-19T00:08:39.482Z,6.82
2022-10-19T00:09:39.515Z,6.82
2022-10-19T00:10:39.549Z,6.73
2022-10-19T00:11:39.583Z,6.34
2022-10-19T00:12:39.655Z,6.63
2022-10-19T00:13:39.652Z,6.53
2022-10-19T00:14:39.683Z,6.63
2022-10-19T00:15:39.718Z,6.53
2022-10-19T00:16:39.748Z,6.43
2022-10-19T00:17:39.808Z,6.05
2022-10-19T00:18:39.834Z,6.15
2022-10-19T00:19:39.849Z,6.15
2022-10-19T00:20:39.881Z,6.15
2022-10-19T00:21:40.035Z,6.24
2022-10-19T00:22:39.950Z,6.15
2022-10-19T00:23:39.983Z,6.24
2022-10-19T00:24:40.016Z,6.34
2022-10-19T00:25:40.048Z,6.24
2022-10-19T00:26:40.083Z,6.24
2022-10-19T00:27:40.117Z,6.24
2022-10-19T00:28:40.210Z,6.15
2022-10-19T00:29:40.182Z,6.15
2022-10-19T00:30:40.313Z,6.15
2022-10-19T00:31:40.250Z,6.34
2022-10-19T00:32:40.284Z,6.05
2022-10-19T00:33:40.340Z,6.05
2022-10-19T00:34:40.350Z,5.95
2022-10-19T00:35:40.383Z,6.15
2022-10-19T00:36:40.416Z,6.24
2022-10-19T00:37:40.452Z,6.15
2022-10-19T00:38:40.484Z,6.05
2022-10-19T00:39:40.571Z,6.05
2022-10-19T00:40:40.550Z,6.24
2022-10-19T00:41:40.585Z,6.05
2022-10-19T00:42:40.616Z,6.15
2022-10-19T00:43:40.651Z,6.05
2022-10-19T00:44:40.683Z,6.05
2022-10-19T00:45:40.716Z,6.15
2022-10-19T00:46:40.751Z,6.15
2022-10-19T00:47:40.820Z,6.05
2022-10-19T00:48:40.858Z,6.05
2022-10-19T00:49:40.933Z,6.05
2022-10-19T00:50:40.884Z,6.05
2022-10-19T00:51:40.918Z,5.85
2022-10-19T00:52:40.949Z,6.05
2022-10-19T00:53:40.984Z,6.05
2022-10-19T00:54:41.017Z,6.15
2022-10-19T00:55:41.051Z,6.05
2022-10-19T00:56:41.082Z,6.15
2022-10-19T00:57:41.264Z,5.76
2022-10-19T00:58:41.151Z,5.76
2022-10-19T00:59:41.186Z,5.95
2022-10-19T01:00:41.319Z,6.05
2022-10-19T01:01:41.251Z,6.05
2022-10-19T01:02:41.285Z,5.95
2022-10-19T01:03:41.317Z,5.85
2022-10-19T01:04:41.350Z,5.95
2022-10-19T01:05:41.408Z,6.05
2022-10-19T01:06:41.500Z,6.05
2022-10-19T01:07:41.455Z,5.85
2022-10-19T01:08:41.488Z,6.15
2022-10-19T01:09:41.517Z,5.85
2022-10-19T01:10:41.552Z,6.05
2022-10-19T01:11:41.585Z,5.66
2022-10-19T01:12:41.618Z,5.95
2022-10-19T01:13:41.652Z,5.76
2022-10-19T01:14:41.685Z,5.95
2022-10-19T01:15:41.772Z,6.15
2022-10-19T01:16:41.751Z,5.95
2022-10-19T01:17:41.785Z,5.85
2022-10-19T01:18:41.818Z,5.76
2022-10-19T01:19:41.852Z,5.66
2022-10-19T01:20:41.885Z,5.66
2022-10-19T01:21:41.944Z,5.95
2022-10-19T01:22:41.952Z,5.56
2022-10-19T01:23:41.986Z,5.66
2022-10-19T01:24:42.107Z,5.66
2022-10-19T01:25:42.052Z,5.66
2022-10-19T01:26:42.089Z,5.66
2022-10-19T01:27:42.120Z,5.46
2022-10-19T01:28:42.218Z,5.56
2022-10-19T01:29:42.186Z,5.76
2022-10-19T01:30:42.220Z,5.76
2022-10-19T01:31:42.253Z,5.76
2022-10-19T01:32:42.285Z,5.76
2022-10-19T01:33:42.320Z,5.76
2022-10-19T01:34:42.353Z,5.76
2022-10-19T01:35:42.387Z,5.56
2022-10-19T01:36:42.424Z,5.56
2022-10-19T01:37:42.479Z,5.66
2022-10-19T01:38:42.486Z,5.66
2022-10-19T01:39:45.214Z,5.66
2022-10-19T01:40:42.553Z,5.66
2022-10-19T01:41:42.586Z,5.95
2022-10-19T01:42:42.684Z,6.05
2022-10-19T01:43:42.653Z,6.05
2022-10-19T01:44:42.687Z,6.15
2022-10-19T01:45:42.722Z,5.85
2022-10-19T01:46:42.753Z,6.05
2022-10-19T01:47:42.787Z,5.76
2022-10-19T01:48:42.820Z,5.76
2022-10-19T01:49:42.855Z,6.05
2022-10-19T01:50:42.888Z,5.66
2022-10-19T01:51:42.922Z,5.56
2022-10-19T01:52:42.954Z,5.95
2022-10-19T01:53:43.012Z,5.66
2022-10-19T01:54:43.022Z,5.66
2022-10-19T01:55:43.054Z,5.56
2022-10-19T01:56:43.088Z,5.76
2022-10-19T01:57:43.122Z,5.76
2022-10-19T01:58:43.154Z,5.76
2022-10-19T01:59:43.189Z,5.76
2022-10-19T02:00:43.298Z,5.76
2022-10-19T02:01:43.255Z,5.66
2022-10-19T02:02:43.288Z,5.85
2022-10-19T02:03:43.322Z,5.95
2022-10-19T02:04:43.354Z,5.85
2022-10-19T02:05:43.389Z,5.76
2022-10-19T02:06:43.423Z,5.95
2022-10-19T02:07:43.454Z,5.76
2022-10-19T02:08:43.489Z,5.76
2022-10-19T02:09:43.546Z,5.95
2022-10-19T02:10:43.557Z,5.85
2022-10-19T02:11:45.335Z,5.95
2022-10-19T02:12:43.624Z,5.95
2022-10-19T02:13:43.655Z,5.85
2022-10-19T02:14:43.690Z,5.85
2022-10-19T02:15:43.722Z,5.85
2022-10-19T02:16:43.755Z,5.95
2022-10-19T02:17:43.789Z,6.05
2022-10-19T02:18:43.823Z,5.85
2022-10-19T02:19:43.864Z,5.85
2022-10-19T02:20:43.889Z,5.76
2022-10-19T02:21:43.923Z,6.05
2022-10-19T02:22:43.957Z,5.95
2022-10-19T02:23:43.991Z,6.05
2022-10-19T02:24:44.027Z,6.05
2022-10-19T02:25:44.081Z,5.95
2022-10-19T02:26:44.090Z,5.76
2022-10-19T02:27:44.126Z,5.76
2022-10-19T02:28:44.160Z,6.05
2022-10-19T02:29:44.190Z,6.05
2022-10-19T02:30:44.224Z,6.05
2022-10-19T02:31:44.259Z,6.05
2022-10-19T02:32:44.289Z,5.85
2022-10-19T02:33:44.324Z,5.85
2022-10-19T02:34:44.360Z,5.76
2022-10-19T02:35:44.391Z,5.95
2022-10-19T02:36:44.423Z,5.76
2022-10-19T02:37:44.458Z,5.85
2022-10-19T02:38:44.493Z,5.76
2022-10-19T02:39:44.526Z,5.76
2022-10-19T02:40:44.559Z,5.85
2022-10-19T02:41:44.617Z,5.95
2022-10-19T02:42:44.626Z,5.76
2022-10-19T02:43:44.659Z,5.76
2022-10-19T02:44:44.691Z,5.85
2022-10-19T02:45:44.724Z,5.85
2022-10-19T02:46:44.761Z,5.85
2022-10-19T02:47:44.795Z,5.85
2022-10-19T02:48:44.827Z,5.85
2022-10-19T02:49:44.857Z,5.85
2022-10-19T02:50:44.892Z,5.76
2022-10-19T02:51:44.925Z,5.95
2022-10-19T02:52:44.958Z,5.85
2022-10-19T02:53:44.993Z,5.85
2022-10-19T02:54:45.025Z,5.95
2022-10-19T02:55:45.061Z,5.76
2022-10-19T02:56:45.093Z,5.85
2022-10-19T02:57:45.150Z,5.85
2022-10-19T02:58:45.162Z,6.05
2022-10-19T02:59:45.193Z,6.05
2022-10-19T03:00:45.328Z,6.05
2022-10-19T03:01:45.260Z,6.05
2022-10-19T03:02:45.293Z,5.76
2022-10-19T03:03:45.327Z,5.95
2022-10-19T03:04:45.362Z,5.95
2022-10-19T03:05:45.394Z,5.76
2022-10-19T03:06:45.427Z,5.76
2022-10-19T03:07:45.462Z,5.95
2022-10-19T03:08:45.492Z,5.85
2022-10-19T03:09:45.526Z,5.76
2022-10-19T03:10:45.561Z,5.85
2022-10-19T03:11:45.594Z,5.85
2022-10-19T03:12:45.631Z,5.66
2022-10-19T03:14:45.695Z,5.76
2022-10-19T03:15:45.730Z,5.76
2022-10-19T03:16:45.761Z,5.76
2022-10-19T03:17:45.793Z,5.56
2022-10-19T03:18:45.828Z,5.76
2022-10-19T03:19:45.862Z,5.66
2022-10-19T03:20:45.894Z,5.66
2022-10-19T03:21:45.928Z,5.76
2022-10-19T03:22:45.993Z,5.76
2022-10-19T03:23:45.996Z,5.76
2022-10-19T03:24:46.029Z,5.76
2022-10-19T03:25:46.061Z,5.76
2022-10-19T03:26:46.094Z,5.56
2022-10-19T03:27:46.130Z,5.66
2022-10-19T03:28:46.205Z,5.76
2022-10-19T03:29:46.218Z,5.56
2022-10-19T03:30:46.228Z,5.56
2022-10-19T03:31:46.262Z,5.56
2022-10-19T03:32:46.297Z,5.66
2022-10-19T03:33:46.332Z,5.95
2022-10-19T03:34:46.362Z,5.76
2022-10-19T03:35:46.396Z,5.56
2022-10-19T03:36:46.428Z,5.95
2022-10-19T03:37:46.463Z,5.56
2022-10-19T03:38:46.495Z,5.56
2022-10-19T03:39:46.534Z,5.76
2022-10-19T03:40:46.565Z,5.76
2022-10-19T03:41:46.599Z,5.76
2022-10-19T03:42:46.630Z,5.76
2022-10-19T03:43:46.705Z,5.76
2022-10-19T03:44:46.696Z,5.76
2022-10-19T03:45:46.753Z,5.76
2022-10-19T03:46:46.763Z,5.66
2022-10-19T03:47:46.798Z,5.76
2022-10-19T03:48:46.830Z,5.66
2022-10-19T03:49:46.864Z,5.66
2022-10-19T03:50:46.897Z,5.46
2022-10-19T03:51:46.932Z,5.36
2022-10-19T03:52:46.965Z,5.17
2022-10-19T03:53:46.997Z,5.46
2022-10-19T03:54:47.031Z,5.27
2022-10-19T03:55:47.066Z,5.17
2022-10-19T03:56:47.097Z,5.27
2022-10-19T03:57:47.131Z,5.27
2022-10-19T03:58:47.168Z,5.46
2022-10-19T03:59:47.197Z,5.27
2022-10-19T04:00:47.267Z,5.66
2022-10-19T04:01:47.288Z,5.46
2022-10-19T04:02:47.303Z,5.17
2022-10-19T04:03:47.333Z,5.46
2022-10-19T04:04:47.365Z,5.46
2022-10-19T04:05:47.398Z,5.17
2022-10-19T04:06:47.436Z,5.27
2022-10-19T04:07:47.467Z,5.36
2022-10-19T04:08:47.498Z,5.27
2022-10-19T04:09:47.533Z,5.46
2022-10-19T04:10:47.566Z,5.17
2022-10-19T04:11:47.599Z,5.17
2022-10-19T04:12:50.492Z,5.46
2022-10-19T04:13:47.666Z,5.27
2022-10-19T04:14:56.732Z,5.17
2022-10-19T04:15:47.733Z,5.66
2022-10-19T04:16:47.766Z,5.27
2022-10-19T04:17:48.692Z,5.17
2022-10-19T04:18:47.835Z,5.17
2022-10-19T04:19:47.868Z,5.76
2022-10-19T04:20:47.901Z,5.66
2022-10-19T04:21:47.933Z,5.27
2022-10-19T04:22:47.973Z,5.76
2022-10-19T04:23:48.001Z,5.76
2022-10-19T04:24:48.033Z,5.66
2022-10-19T04:25:48.070Z,5.85
2022-10-19T04:26:48.100Z,5.85
2022-10-19T04:27:48.134Z,5.76
2022-10-19T04:28:48.230Z,5.85
2022-10-19T04:29:48.201Z,5.66
2022-10-19T04:30:48.234Z,5.56
2022-10-19T04:31:48.271Z,5.76
2022-10-19T04:32:48.300Z,5.76
2022-10-19T04:33:48.365Z,5.76
2022-10-19T04:34:48.368Z,5.36
2022-10-19T04:35:48.402Z,5.85
2022-10-19T04:36:48.438Z,5.76
2022-10-19T04:37:48.468Z,5.66
2022-10-19T04:38:48.502Z,5.17
2022-10-19T04:39:48.535Z,5.17
2022-10-19T04:40:48.568Z,5.36
2022-10-19T04:41:48.606Z,5.46
2022-10-19T04:42:48.655Z,5.46
2022-10-19T04:43:48.675Z,5.36
2022-10-19T04:44:48.703Z,5.46
2022-10-19T04:45:48.737Z,5.46
2022-10-19T04:46:48.770Z,5.36
2022-10-19T04:47:48.803Z,5.36
2022-10-19T04:48:48.835Z,5.66
2022-10-19T04:49:48.892Z,5.76
2022-10-19T04:50:48.903Z,5.56
2022-10-19T04:51:48.936Z,5.36
2022-10-19T04:52:48.973Z,5.36
2022-10-19T04:53:49.005Z,5.36
2022-10-19T04:54:49.036Z,5.36
2022-10-19T04:55:49.071Z,5.56
2022-10-19T04:56:49.103Z,5.46
2022-10-19T04:57:49.137Z,5.36
2022-10-19T04:58:49.170Z,5.56
2022-10-19T04:59:49.204Z,5.56
2022-10-19T05:00:49.322Z,5.46
2022-10-19T05:01:49.273Z,5.56
2022-10-19T05:02:49.306Z,5.56
2022-10-19T05:03:49.397Z,5.46
2022-10-19T05:04:49.370Z,5.27
2022-10-19T05:05:49.431Z,5.46
2022-10-19T05:06:49.438Z,5.46
2022-10-19T05:07:49.475Z,5.36
2022-10-19T05:08:49.505Z,5.46
2022-10-19T05:09:49.538Z,5.46
2022-10-19T05:10:49.572Z,5.46
2022-10-19T05:11:49.604Z,5.46
2022-10-19T05:12:49.638Z,5.36
2022-10-19T05:13:49.671Z,5.46
2022-10-19T05:14:49.705Z,5.56
2022-10-19T05:15:49.741Z,5.66
2022-10-19T05:16:49.772Z,5.66
2022-10-19T05:17:49.805Z,5.36
2022-10-19T05:18:49.853Z,5.36
2022-10-19T05:19:49.872Z,5.07
2022-10-19T05:20:49.906Z,5.17
2022-10-19T05:21:49.969Z,5.17
2022-10-19T05:22:49.973Z,5.27
2022-10-19T05:23:50.006Z,5.27
2022-10-19T05:24:53.335Z,5.27
2022-10-19T05:25:50.077Z,5.36
2022-10-19T05:26:50.106Z,5.36
2022-10-19T05:27:50.139Z,5.17
2022-10-19T05:28:50.217Z,5.17
2022-10-19T05:29:50.206Z,4.97
2022-10-19T05:30:50.241Z,5.17
2022-10-19T05:31:50.275Z,5.17
2022-10-19T05:32:50.306Z,5.17
2022-10-19T05:33:50.339Z,5.16
2022-10-19T05:34:50.375Z,5.36
2022-10-19T05:35:50.408Z,5.07
2022-10-19T05:36:50.439Z,5.16
2022-10-19T05:37:50.495Z,5.36
2022-10-19T05:38:50.529Z,5.46
2022-10-19T05:39:50.539Z,5.36
2022-10-19T05:40:53.585Z,5.26
2022-10-19T05:41:50.608Z,5.36
2022-10-19T05:42:50.642Z,5.36
2022-10-19T05:43:50.674Z,5.26
2022-10-19T05:44:50.706Z,5.16
2022-10-19T05:45:50.741Z,5.36
2022-10-19T05:46:50.774Z,5.26
2022-10-19T05:47:50.806Z,5.16
2022-10-19T05:48:50.838Z,5.26
2022-10-19T05:49:50.873Z,5.16
2022-10-19T05:50:50.907Z,5.07
2022-10-19T05:51:50.940Z,5.36
2022-10-19T05:52:50.972Z,5.26
2022-10-19T05:53:51.033Z,5.36
2022-10-19T05:54:51.042Z,5.36
2022-10-19T05:55:51.073Z,5.36
2022-10-19T05:56:51.126Z,5.26
2022-10-19T05:57:51.138Z,5.26
2022-10-19T05:58:51.173Z,5.16
2022-10-19T05:59:51.206Z,5.55
2022-10-19T06:00:51.239Z,5.65
2022-10-19T06:01:51.327Z,5.16
2022-10-19T06:02:53.720Z,5.46
2022-10-19T06:03:51.339Z,5.46
2022-10-19T06:04:51.371Z,5.65
2022-10-19T06:05:51.405Z,5.75
2022-10-19T06:06:51.439Z,5.75
2022-10-19T06:07:51.471Z,5.65
2022-10-19T06:08:51.504Z,5.65
2022-10-19T06:09:51.562Z,5.65
2022-10-19T06:10:51.571Z,5.65
2022-10-19T06:11:51.604Z,5.55
2022-10-19T06:12:51.638Z,5.65
2022-10-19T06:13:51.670Z,5.65
2022-10-19T06:14:51.708Z,5.36
2022-10-19T06:15:51.738Z,5.36
2022-10-19T06:16:51.771Z,5.46
2022-10-19T06:17:51.804Z,5.46
2022-10-19T06:18:51.837Z,5.46
2022-10-19T06:19:51.870Z,5.55
2022-10-19T06:20:51.907Z,5.46
2022-10-19T06:21:51.937Z,5.36
2022-10-19T06:22:51.971Z,5.46
2022-10-19T06:23:52.009Z,5.46
2022-10-19T06:24:52.035Z,5.55
2022-10-19T06:25:52.096Z,5.36
2022-10-19T06:26:52.102Z,5.46
2022-10-19T06:27:52.212Z,5.46
2022-10-19T06:28:52.167Z,5.65
2022-10-19T06:29:52.201Z,5.65
2022-10-19T06:30:52.419Z,5.75
2022-10-19T06:31:52.268Z,5.75
2022-10-19T06:32:52.466Z,5.75
2022-10-19T06:33:52.398Z,5.85
2022-10-19T06:34:56.664Z,5.75
2022-10-19T06:35:52.401Z,5.85
2022-10-19T06:36:52.434Z,5.85
2022-10-19T06:37:52.466Z,5.94
2022-10-19T06:38:52.501Z,5.75
2022-10-19T06:39:52.604Z,5.85
2022-10-19T06:40:52.565Z,5.75
2022-10-19T06:41:52.623Z,5.94
2022-10-19T06:42:52.632Z,5.94
2022-10-19T06:43:52.666Z,5.94
2022-10-19T06:44:52.701Z,5.65
2022-10-19T06:45:52.731Z,5.85
2022-10-19T06:46:52.765Z,5.94
2022-10-19T06:47:52.799Z,5.94
2022-10-19T06:48:52.833Z,5.85
2022-10-19T06:49:52.866Z,5.75
2022-10-19T06:50:52.898Z,6.14
2022-10-19T06:51:52.933Z,6.04
2022-10-19T06:52:52.964Z,6.14
2022-10-19T06:53:56.535Z,6.14
2022-10-19T06:54:53.032Z,6.43
2022-10-19T06:55:53.062Z,6.24
2022-10-19T06:56:53.101Z,6.04
2022-10-19T06:57:53.153Z,5.94
2022-10-19T06:58:53.162Z,6.33
2022-10-19T06:59:53.782Z,6.33
2022-10-19T07:00:53.270Z,6.33
2022-10-19T07:01:53.262Z,6.14
2022-10-19T07:02:53.294Z,6.24
2022-10-19T07:03:53.329Z,6.04
2022-10-19T07:04:53.360Z,6.33
2022-10-19T07:05:53.393Z,6.52
2022-10-19T07:06:53.429Z,6.72
2022-10-19T07:07:53.512Z,6.92
2022-10-19T07:08:53.493Z,6.62
2022-10-19T07:09:53.525Z,6.82
2022-10-19T07:10:53.559Z,6.62
2022-10-19T07:11:53.591Z,6.62
2022-10-19T07:12:53.670Z,6.72
2022-10-19T07:13:53.688Z,6.62
2022-10-19T07:14:53.691Z,6.52
2022-10-19T07:15:53.723Z,6.72
2022-10-19T07:16:53.756Z,6.72
2022-10-19T07:17:53.791Z,6.82
2022-10-19T07:18:53.823Z,6.82
2022-10-19T07:19:53.856Z,6.72
2022-10-19T07:20:53.888Z,7.01
2022-10-19T07:21:53.922Z,6.82
2022-10-19T07:22:53.956Z,6.82
2022-10-19T07:23:53.987Z,6.72
2022-10-19T07:24:54.021Z,6.82
2022-10-19T07:25:54.054Z,6.82
2022-10-19T07:26:54.087Z,6.72
2022-10-19T07:27:54.121Z,6.62
2022-10-19T07:28:54.153Z,7.11
2022-10-19T07:29:54.210Z,7.01
2022-10-19T07:30:54.219Z,6.92
2022-10-19T07:31:54.254Z,7.11
2022-10-19T07:32:54.284Z,6.92
2022-10-19T07:33:54.318Z,7.11
2022-10-19T07:34:54.352Z,7.21
2022-10-19T07:35:54.387Z,7.11
2022-10-19T07:36:54.417Z,7.11
2022-10-19T07:37:54.450Z,7.11
2022-10-19T07:38:54.485Z,7.21
2022-10-19T07:39:54.518Z,7.21
2022-10-19T07:40:54.551Z,7.21
2022-10-19T07:41:54.584Z,7.11
2022-10-19T07:42:54.615Z,7.11
2022-10-19T07:43:54.648Z,7.11
2022-10-19T07:44:54.681Z,7.11
2022-10-19T07:45:54.737Z,7.40
2022-10-19T07:46:54.749Z,7.11
2022-10-19T07:47:54.781Z,7.11
2022-10-19T07:48:54.813Z,7.21
2022-10-19T07:49:54.846Z,7.50
2022-10-19T07:50:54.880Z,7.21
2022-10-19T07:51:54.913Z,7.31
2022-10-19T07:52:54.946Z,7.40
2022-10-19T07:53:54.978Z,7.40
2022-10-19T07:54:55.015Z,7.50
2022-10-19T07:55:55.044Z,7.50
2022-10-19T07:56:55.077Z,7.69
2022-10-19T07:57:55.110Z,7.21
2022-10-19T07:58:55.145Z,7.40
2022-10-19T07:59:55.179Z,7.40
2022-10-19T08:00:55.210Z,7.50
2022-10-19T08:01:55.373Z,7.31
2022-10-19T08:03:19.336Z,7.21
2022-10-19T08:05:01.284Z,7.69
2022-10-19T08:05:55.374Z,7.59
2022-10-19T08:06:55.406Z,7.69
2022-10-19T08:07:55.443Z,7.59
2022-10-19T08:08:55.528Z,7.60
2022-10-19T08:09:55.655Z,7.79
2022-10-19T08:10:55.555Z,7.98
2022-10-19T08:11:55.571Z,7.98
2022-10-19T08:12:55.605Z,7.98
2022-10-19T08:13:55.637Z,8.08
2022-10-19T08:14:55.673Z,7.89
2022-10-19T08:15:55.703Z,7.98
2022-10-19T08:16:55.750Z,7.79
2022-10-19T08:17:55.800Z,8.08
2022-10-19T08:18:55.803Z,8.28
2022-10-19T08:19:55.837Z,8.47
2022-10-19T08:20:55.870Z,8.37
2022-10-19T08:21:55.904Z,8.28
2022-10-19T08:22:58.824Z,8.08
2022-10-19T08:23:55.969Z,8.37
2022-10-19T08:24:56.001Z,8.37
2022-10-19T08:25:56.032Z,8.47
2022-10-19T08:26:56.065Z,8.57
2022-10-19T08:27:56.100Z,8.47
2022-10-19T08:28:56.130Z,8.76
2022-10-19T08:29:56.170Z,8.76
2022-10-19T08:30:56.197Z,8.67
2022-10-19T08:31:56.230Z,8.47
2022-10-19T08:32:56.263Z,8.37
2022-10-19T08:33:56.323Z,8.37
2022-10-19T08:34:56.331Z,8.67
2022-10-19T08:35:56.362Z,8.86
2022-10-19T08:36:56.399Z,8.57
2022-10-19T08:37:58.560Z,8.86
2022-10-19T08:38:56.462Z,8.86
2022-10-19T08:39:56.494Z,8.86
2022-10-19T08:40:56.526Z,8.76
2022-10-19T08:41:56.559Z,9.06
2022-10-19T08:42:56.592Z,8.96
2022-10-19T08:43:56.626Z,8.86
2022-10-19T08:44:56.658Z,8.86
2022-10-19T08:45:56.692Z,9.25
2022-10-19T08:46:56.724Z,9.06
2022-10-19T08:47:56.760Z,9.25
2022-10-19T08:48:56.789Z,9.25
2022-10-19T08:49:56.863Z,9.16
2022-10-19T08:50:56.855Z,9.35
2022-10-19T08:51:56.889Z,9.16
2022-10-19T08:52:56.920Z,9.16
2022-10-19T08:53:56.954Z,9.25
2022-10-19T08:54:56.988Z,9.16
2022-10-19T08:55:57.865Z,9.16
2022-10-19T08:56:57.052Z,9.45
2022-10-19T08:57:57.086Z,9.35
2022-10-19T08:58:57.119Z,9.45
2022-10-19T08:59:57.154Z,9.35
2022-10-19T09:00:57.184Z,9.35
2022-10-19T09:01:57.217Z,9.25
2022-10-19T09:02:57.250Z,9.25
2022-10-19T09:03:57.287Z,9.35
2022-10-19T09:04:57.315Z,9.64
2022-10-19T09:05:57.374Z,9.35
2022-10-19T09:06:57.381Z,9.64
2022-10-19T09:07:57.415Z,9.55
2022-10-19T09:08:57.553Z,9.55
2022-10-19T09:09:57.491Z,9.64
2022-10-19T09:10:57.513Z,9.64
2022-10-19T09:11:57.550Z,9.64
2022-10-19T09:12:58.573Z,9.64
2022-10-19T09:14:05.256Z,9.45
2022-10-19T09:14:57.647Z,9.45
2022-10-19T09:15:57.677Z,9.64
2022-10-19T09:16:57.711Z,9.55
2022-10-19T09:17:57.743Z,9.64
2022-10-19T09:18:57.780Z,9.64
2022-10-19T09:19:57.810Z,9.84
2022-10-19T09:20:57.842Z,9.84
2022-10-19T09:21:57.902Z,9.74
2022-10-19T09:22:57.908Z,9.64
2022-10-19T09:23:57.941Z,9.84
2022-10-19T09:24:57.974Z,9.55
2022-10-19T09:25:58.006Z,9.64
2022-10-19T09:26:58.039Z,9.74
2022-10-19T09:27:58.118Z,9.84
2022-10-19T09:28:58.104Z,9.84
2022-10-19T09:29:58.142Z,9.64
2022-10-19T09:30:58.172Z,9.55
2022-10-19T09:32:58.235Z,9.84
2022-10-19T09:33:58.270Z,9.94
2022-10-19T09:34:58.302Z,9.94
2022-10-19T09:35:58.337Z,10.13
2022-10-19T09:36:58.408Z,10.13
2022-10-19T09:37:58.425Z,10.13
2022-10-19T09:38:58.433Z,10.22
2022-10-19T09:39:58.468Z,10.22
2022-10-19T09:40:58.501Z,10.32
2022-10-19T09:41:58.537Z,9.94
2022-10-19T09:42:58.585Z,9.94
2022-10-19T09:43:58.598Z,9.74
2022-10-19T09:44:58.630Z,9.84
2022-10-19T09:45:58.667Z,9.84
2022-10-19T09:46:58.697Z,9.94
2022-10-19T09:48:05.712Z,9.74
2022-10-19T09:48:58.762Z,9.74
2022-10-19T09:49:58.796Z,9.74
2022-10-19T09:50:58.828Z,9.74
2022-10-19T09:51:58.862Z,10.13
2022-10-19T09:52:58.894Z,10.03
2022-10-19T09:53:58.954Z,10.13
2022-10-19T09:54:58.959Z,10.13
2022-10-19T09:55:58.999Z,10.13
2022-10-19T09:56:59.025Z,10.22
2022-10-19T09:57:59.063Z,10.13
2022-10-19T09:58:59.099Z,10.22
2022-10-19T09:59:59.123Z,10.13
2022-10-19T10:00:59.155Z,9.93
2022-10-19T10:01:59.432Z,10.03
2022-10-19T10:02:59.224Z,10.13
2022-10-19T10:03:59.255Z,10.22
2022-10-19T10:04:59.287Z,10.22
2022-10-19T10:05:59.320Z,10.13
2022-10-19T10:06:59.354Z,10.22
2022-10-19T10:07:59.387Z,10.32
2022-10-19T10:08:59.534Z,10.41
2022-10-19T10:09:59.481Z,10.41
2022-10-19T10:10:59.483Z,10.41
2022-10-19T10:11:59.520Z,10.41
2022-10-19T10:12:59.557Z,10.51
2022-10-19T10:13:59.586Z,10.41
2022-10-19T10:14:59.615Z,10.41
2022-10-19T10:15:59.648Z,10.32
2022-10-19T10:16:59.682Z,10.32
2022-10-19T10:17:59.714Z,10.32
2022-10-19T10:18:59.746Z,10.32
2022-10-19T10:19:59.779Z,10.41
2022-10-19T10:20:59.817Z,10.41
2022-10-19T10:21:59.845Z,10.22
2022-10-19T10:22:59.878Z,10.51
2022-10-19T10:23:59.914Z,10.32
2022-10-19T10:24:59.943Z,10.32
2022-10-19T10:25:59.999Z,10.61
2022-10-19T10:27:00.009Z,10.13
2022-10-19T10:28:00.041Z,10.41
2022-10-19T10:29:01.534Z,10.61
2022-10-19T10:30:00.352Z,10.41
2022-10-19T10:31:00.139Z,10.13
2022-10-19T10:32:00.173Z,10.13
2022-10-19T10:33:08.168Z,10.13
2022-10-19T10:34:06.582Z,10.13
2022-10-19T10:35:01.470Z,10.51
2022-10-19T10:36:00.305Z,10.61
2022-10-19T10:37:00.338Z,10.51
2022-10-19T10:38:00.370Z,10.51
2022-10-19T10:39:00.403Z,10.51
2022-10-19T10:40:03.696Z,10.71
2022-10-19T10:41:00.467Z,10.71
2022-10-19T10:42:00.525Z,10.71
2022-10-19T10:43:00.534Z,10.71
2022-10-19T10:44:03.702Z,10.80
2022-10-19T10:45:00.599Z,10.71
2022-10-19T10:46:00.632Z,10.71
2022-10-19T10:47:00.664Z,10.71
2022-10-19T10:48:00.743Z,10.61
2022-10-19T10:49:00.731Z,10.80
2022-10-19T10:50:00.761Z,10.61
2022-10-19T10:51:00.796Z,10.80
2022-10-19T10:52:00.828Z,10.90
2022-10-19T10:53:00.871Z,11.00
2022-10-19T10:54:00.895Z,11.00
2022-10-19T10:55:00.927Z,11.00
2022-10-19T10:56:00.961Z,11.10
2022-10-19T10:57:04.424Z,11.10
2022-10-19T10:58:01.054Z,11.00
2022-10-19T10:59:01.057Z,11.00
2022-10-19T11:00:01.094Z,10.90
2022-10-19T11:01:06.700Z,10.80
2022-10-19T11:02:01.231Z,10.90
2022-10-19T11:03:01.188Z,10.90
2022-10-19T11:04:01.221Z,10.80
2022-10-19T11:05:01.254Z,10.80
2022-10-19T11:06:01.286Z,10.80
2022-10-19T11:07:01.320Z,10.80
2022-10-19T11:08:01.351Z,10.80
2022-10-19T11:09:01.463Z,11.00
2022-10-19T11:10:01.416Z,10.80
2022-10-19T11:11:01.452Z,10.71
2022-10-19T11:12:01.484Z,10.71
2022-10-19T11:13:01.515Z,11.00
2022-10-19T11:14:01.574Z,11.00
2022-10-19T11:15:01.580Z,10.90
2022-10-19T11:16:01.614Z,11.00
2022-10-19T11:17:01.784Z,11.19
2022-10-19T11:18:01.680Z,11.00
2022-10-19T11:19:01.841Z,11.00
2022-10-19T11:20:01.745Z,10.90
2022-10-19T11:21:01.777Z,11.00
2022-10-19T11:22:01.810Z,11.10
2022-10-19T11:23:01.844Z,10.80
2022-10-19T11:24:01.877Z,10.90
2022-10-19T11:25:01.924Z,10.90
2022-10-19T11:26:01.963Z,11.00
2022-10-19T11:27:02.067Z,10.80
2022-10-19T11:28:02.008Z,10.90
2022-10-19T11:29:02.038Z,11.29
2022-10-19T11:30:02.120Z,11.10
2022-10-19T11:31:02.107Z,11.19
2022-10-19T11:32:02.137Z,11.29
2022-10-19T11:33:02.172Z,11.19
2022-10-19T11:34:02.672Z,11.19
2022-10-19T11:35:02.236Z,11.19
2022-10-19T11:36:02.292Z,11.49
2022-10-19T11:37:02.365Z,11.49
2022-10-19T11:38:19.092Z,11.48
2022-10-19T11:39:02.366Z,11.49
2022-10-19T11:40:02.400Z,11.39
2022-10-19T11:41:18.931Z,11.49
2022-10-19T11:42:02.470Z,11.49
2022-10-19T11:43:02.499Z,11.58
2022-10-19T11:44:02.530Z,11.48
2022-10-19T11:45:02.562Z,11.39
2022-10-19T11:46:02.618Z,11.38
2022-10-19T11:47:02.648Z,11.39
2022-10-19T11:48:02.661Z,11.29
2022-10-19T11:49:02.697Z,11.29
2022-10-19T11:50:02.794Z,11.29
2022-10-19T11:51:17.407Z,11.29
2022-10-19T11:52:02.797Z,11.19
2022-10-19T11:53:02.824Z,11.29
2022-10-19T11:54:02.856Z,11.29
2022-10-19T11:55:02.901Z,11.19
2022-10-19T11:56:02.922Z,11.19
2022-10-19T11:57:06.392Z,11.29
2022-10-19T11:58:02.987Z,11.29
2022-10-19T11:59:03.195Z,11.29
2022-10-19T12:00:14.253Z,11.29
2022-10-19T12:01:03.088Z,11.29
2022-10-19T12:02:03.167Z,11.10
2022-10-19T12:03:04.042Z,11.29
2022-10-19T12:04:03.183Z,11.29
2022-10-19T12:05:03.218Z,11.29
2022-10-19T12:06:03.249Z,11.38
2022-10-19T12:07:03.281Z,11.38
2022-10-19T12:08:03.315Z,11.38
2022-10-19T12:09:03.425Z,11.29
2022-10-19T12:10:03.379Z,11.29
2022-10-19T12:11:03.411Z,11.29
2022-10-19T12:12:03.445Z,11.88
2022-10-19T12:13:03.477Z,11.68
2022-10-19T12:14:03.512Z,11.68
2022-10-19T12:15:03.546Z,11.68
2022-10-19T12:16:03.579Z,11.78
2022-10-19T12:17:03.662Z,11.87
2022-10-19T12:18:03.762Z,11.77
2022-10-19T12:19:03.675Z,11.68
2022-10-19T12:20:03.706Z,11.77
2022-10-19T12:21:03.747Z,11.58
2022-10-19T12:22:03.771Z,11.58
2022-10-19T12:23:03.804Z,11.77
2022-10-19T12:24:03.839Z,11.68
2022-10-19T12:25:03.869Z,11.68
2022-10-19T12:26:03.902Z,11.77
2022-10-19T12:27:03.935Z,11.68
2022-10-19T12:28:03.970Z,11.68
2022-10-19T12:29:04.000Z,11.68
2022-10-19T12:30:04.032Z,11.68
2022-10-19T12:31:04.065Z,11.48
2022-10-19T12:32:04.101Z,11.77
2022-10-19T12:33:04.130Z,11.68
2022-10-19T12:34:04.188Z,11.48
2022-10-19T12:35:04.197Z,11.68
2022-10-19T12:36:04.229Z,11.29
2022-10-19T12:37:04.262Z,11.68
2022-10-19T12:38:04.292Z,11.77
2022-10-19T12:39:04.326Z,11.39
2022-10-19T12:40:04.359Z,11.68
2022-10-19T12:41:04.390Z,11.77
2022-10-19T12:42:04.426Z,11.68
2022-10-19T12:43:04.456Z,11.68
2022-10-19T12:44:04.495Z,11.68
2022-10-19T12:45:04.522Z,11.77
2022-10-19T12:46:04.555Z,11.68
2022-10-19T12:47:04.587Z,11.68
2022-10-19T12:48:04.620Z,11.77
2022-10-19T12:49:04.652Z,11.58
2022-10-19T12:50:04.923Z,11.88
2022-10-19T12:51:04.718Z,11.49
2022-10-19T12:52:04.759Z,11.68
2022-10-19T12:53:04.789Z,11.68
2022-10-19T12:54:04.817Z,11.58
2022-10-19T12:55:04.849Z,11.58
2022-10-19T12:56:04.883Z,11.58
2022-10-19T12:57:04.913Z,11.87
2022-10-19T12:58:04.946Z,11.68
2022-10-19T12:59:04.979Z,11.58
2022-10-19T13:00:05.011Z,11.77
2022-10-19T13:01:05.114Z,11.68
2022-10-19T13:02:05.079Z,11.48
2022-10-19T13:03:05.111Z,11.58
2022-10-19T13:04:05.142Z,11.88
2022-10-19T13:05:05.176Z,11.97
2022-10-19T13:06:05.235Z,11.68
2022-10-19T13:07:05.241Z,11.87
2022-10-19T13:08:06.988Z,11.97
2022-10-19T13:09:05.387Z,11.97
2022-10-19T13:10:05.340Z,12.07
2022-10-19T13:11:05.372Z,11.78
2022-10-19T13:12:05.403Z,11.77
2022-10-19T13:13:05.436Z,11.87
2022-10-19T13:14:05.476Z,11.87
2022-10-19T13:15:05.503Z,11.68